Terminal Aerodrome Forecast
Issued by NWS Boston, MA

Home | Current Version | Previous Version | Text Only | Print | Product List | Glossary On
Versions: 1 2 3 4 5 6 7 8 9 10 11 12 13 14 15 16 17 18 19 20 21 22 23 24 25 26 27 28 29 30 31 32 33 34 35 36 37 38
000
FTUS41 KBOX 012321
TAFORH
TAF
KORH 012321Z 0200/0224 20006KT P6SM BKN050
     FM020200 21006KT P6SM OVC100
     FM021200 VRB03KT 6SM BR OVC020
     FM021500 18004KT 5SM -RA OVC025
     FM021900 14005KT 3SM -RA OVC015
     FM022100 12004KT 2SM BR OVC050=

USA.gov is the U.S. government's official web portal to all federal, state and local government web resources and services.